Ewaterfrd, Pennsylvania
Current Conditions -  °F | °C
As of 2:53 AM on Wednesday 26 Nov 2014 (Local Time) from KAOO Reporting Station
Clear Clear  
Wind Chill:   Ceiling: Unl
Heat Index:   Visibility: 10mi
Dew Point: -3°   Wind: 0mph
Humidity: 78%   Direction: NA
Pressure: 30.15"   Gusts: NA
Location:  40.3617°N, 77.6745°W
Report Text: KAOO 260753Z AUTO 00000KT 10SM CLR 01/M03 A3015 RMK AO2 SLP220 T00061028
Loading
Personal Weather Stations






























Interactive Weather Map New forecast layout! Learn more

10-Day Weather Forecast

Advertisements
Track Severe Weather on mobile